sensor_id;sensor_type;location;lat;lon;timestamp;pressure;altitude;pressure_sealevel;temperature;humidity
80644;BME280;70010;60.224;24.712;2023-08-12T00:01:26;101944.39;;;8.85;64.73
80644;BME280;70010;60.224;24.712;2023-08-12T00:03:52;101945.23;;;9.34;65.69
80644;BME280;70010;60.224;24.712;2023-08-12T00:06:17;101944.00;;;9.00;65.57
80644;BME280;70010;60.224;24.712;2023-08-12T00:08:43;101943.35;;;8.82;65.50
80644;BME280;70010;60.224;24.712;2023-08-12T00:11:07;101943.49;;;8.52;66.32
80644;BME280;70010;60.224;24.712;2023-08-12T00:13:33;101944.35;;;8.48;66.42
80644;BME280;70010;60.224;24.712;2023-08-12T00:15:58;101946.05;;;8.63;66.52
80644;BME280;70010;60.224;24.712;2023-08-12T00:18:23;101943.39;;;8.62;66.61
80644;BME280;70010;60.224;24.712;2023-08-12T00:20:49;101941.33;;;8.76;66.85
80644;BME280;70010;60.224;24.712;2023-08-12T00:23:14;101937.60;;;8.31;66.69
80644;BME280;70010;60.224;24.712;2023-08-12T00:25:39;101942.67;;;8.44;66.87
80644;BME280;70010;60.224;24.712;2023-08-12T00:28:05;101941.64;;;8.44;66.18
80644;BME280;70010;60.224;24.712;2023-08-12T00:30:30;101941.87;;;8.39;66.88
80644;BME280;70010;60.224;24.712;2023-08-12T00:32:55;101938.78;;;8.35;66.91
80644;BME280;70010;60.224;24.712;2023-08-12T00:35:20;101940.46;;;8.51;66.44
80644;BME280;70010;60.224;24.712;2023-08-12T00:37:46;101941.53;;;8.22;67.10
80644;BME280;70010;60.224;24.712;2023-08-12T00:40:12;101939.37;;;8.27;67.02
80644;BME280;70010;60.224;24.712;2023-08-12T00:42:36;101940.38;;;8.35;67.50
80644;BME280;70010;60.224;24.712;2023-08-12T00:45:02;101939.26;;;8.26;67.78
80644;BME280;70010;60.224;24.712;2023-08-12T00:47:28;101938.98;;;8.23;67.77
80644;BME280;70010;60.224;24.712;2023-08-12T00:49:52;101940.60;;;8.81;66.30
80644;BME280;70010;60.224;24.712;2023-08-12T00:52:18;101938.68;;;8.71;66.33
80644;BME280;70010;60.224;24.712;2023-08-12T00:54:43;101936.56;;;8.08;68.07
80644;BME280;70010;60.224;24.712;2023-08-12T00:57:08;101937.11;;;7.92;68.86
80644;BME280;70010;60.224;24.712;2023-08-12T00:59:35;101938.30;;;8.50;67.29
80644;BME280;70010;60.224;24.712;2023-08-12T01:01:59;101939.48;;;8.54;67.14
80644;BME280;70010;60.224;24.712;2023-08-12T01:04:24;101942.25;;;8.60;65.94
80644;BME280;70010;60.224;24.712;2023-08-12T01:06:49;101939.35;;;8.67;65.10
80644;BME280;70010;60.224;24.712;2023-08-12T01:09:15;101939.61;;;8.50;65.47
80644;BME280;70010;60.224;24.712;2023-08-12T01:11:45;101939.93;;;8.43;66.06
80644;BME280;70010;60.224;24.712;2023-08-12T01:14:10;101941.78;;;8.52;66.56
80644;BME280;70010;60.224;24.712;2023-08-12T01:16:33;101940.28;;;8.28;67.29
80644;BME280;70010;60.224;24.712;2023-08-12T01:18:56;101937.81;;;8.25;66.12
80644;BME280;70010;60.224;24.712;2023-08-12T01:21:21;101932.71;;;8.13;66.15
80644;BME280;70010;60.224;24.712;2023-08-12T01:23:46;101934.23;;;8.28;67.00
80644;BME280;70010;60.224;24.712;2023-08-12T01:26:11;101935.42;;;8.52;66.42
80644;BME280;70010;60.224;24.712;2023-08-12T01:28:36;101937.28;;;8.43;66.51
80644;BME280;70010;60.224;24.712;2023-08-12T01:31:07;101937.46;;;8.15;66.41
80644;BME280;70010;60.224;24.712;2023-08-12T01:33:33;101937.42;;;8.42;66.36
80644;BME280;70010;60.224;24.712;2023-08-12T01:35:55;101934.83;;;7.90;66.57
80644;BME280;70010;60.224;24.712;2023-08-12T01:38:19;101935.18;;;8.00;66.91
80644;BME280;70010;60.224;24.712;2023-08-12T01:40:44;101933.13;;;8.18;67.12
80644;BME280;70010;60.224;24.712;2023-08-12T01:43:09;101931.60;;;8.05;67.35
80644;BME280;70010;60.224;24.712;2023-08-12T01:45:34;101932.81;;;7.98;67.67
80644;BME280;70010;60.224;24.712;2023-08-12T01:48:00;101931.79;;;7.96;67.79
80644;BME280;70010;60.224;24.712;2023-08-12T01:50:25;101930.17;;;8.38;66.65
80644;BME280;70010;60.224;24.712;2023-08-12T01:52:51;101924.58;;;8.59;65.79
80644;BME280;70010;60.224;24.712;2023-08-12T01:55:16;101923.19;;;7.74;67.24
80644;BME280;70010;60.224;24.712;2023-08-12T01:57:41;101921.21;;;8.11;67.13
80644;BME280;70010;60.224;24.712;2023-08-12T02:00:07;101922.17;;;8.13;66.18
80644;BME280;70010;60.224;24.712;2023-08-12T02:02:32;101923.15;;;7.99;66.46
80644;BME280;70010;60.224;24.712;2023-08-12T02:04:57;101926.30;;;7.98;67.33
80644;BME280;70010;60.224;24.712;2023-08-12T02:07:23;101925.33;;;7.92;67.58
80644;BME280;70010;60.224;24.712;2023-08-12T02:09:48;101923.94;;;7.99;66.59
80644;BME280;70010;60.224;24.712;2023-08-12T02:12:14;101921.90;;;7.89;66.72
80644;BME280;70010;60.224;24.712;2023-08-12T02:14:39;101921.86;;;8.10;66.90
80644;BME280;70010;60.224;24.712;2023-08-12T02:17:04;101919.75;;;7.85;66.91
80644;BME280;70010;60.224;24.712;2023-08-12T02:19:30;101921.00;;;8.12;66.96
80644;BME280;70010;60.224;24.712;2023-08-12T02:21:55;101924.56;;;7.97;67.43
80644;BME280;70010;60.224;24.712;2023-08-12T02:24:20;101924.29;;;8.09;67.90
80644;BME280;70010;60.224;24.712;2023-08-12T02:26:45;101923.68;;;7.79;67.93
80644;BME280;70010;60.224;24.712;2023-08-12T02:29:11;101924.53;;;7.69;68.39
80644;BME280;70010;60.224;24.712;2023-08-12T02:31:36;101923.48;;;7.78;68.11
80644;BME280;70010;60.224;24.712;2023-08-12T02:34:02;101921.38;;;7.69;68.48
80644;BME280;70010;60.224;24.712;2023-08-12T02:36:28;101918.69;;;7.68;68.45
80644;BME280;70010;60.224;24.712;2023-08-12T02:38:53;101920.14;;;8.08;67.93
80644;BME280;70010;60.224;24.712;2023-08-12T02:41:18;101916.53;;;7.87;68.42
80644;BME280;70010;60.224;24.712;2023-08-12T02:43:44;101916.82;;;7.66;68.53
80644;BME280;70010;60.224;24.712;2023-08-12T02:46:09;101917.38;;;7.48;69.12
80644;BME280;70010;60.224;24.712;2023-08-12T02:48:35;101916.87;;;7.68;68.61
80644;BME280;70010;60.224;24.712;2023-08-12T02:51:00;101917.66;;;7.80;68.27
80644;BME280;70010;60.224;24.712;2023-08-12T02:53:25;101915.98;;;7.42;68.73
80644;BME280;70010;60.224;24.712;2023-08-12T02:55:51;101916.92;;;7.67;68.70
80644;BME280;70010;60.224;24.712;2023-08-12T02:58:16;101916.07;;;7.66;68.74
80644;BME280;70010;60.224;24.712;2023-08-12T03:00:41;101914.19;;;8.03;68.02
80644;BME280;70010;60.224;24.712;2023-08-12T03:03:06;101919.55;;;7.81;67.91
80644;BME280;70010;60.224;24.712;2023-08-12T03:05:32;101924.88;;;7.62;68.57
80644;BME280;70010;60.224;24.712;2023-08-12T03:07:57;101925.95;;;7.80;68.01
80644;BME280;70010;60.224;24.712;2023-08-12T03:10:22;101926.07;;;7.97;67.48
80644;BME280;70010;60.224;24.712;2023-08-12T03:12:48;101921.76;;;7.68;68.32
80644;BME280;70010;60.224;24.712;2023-08-12T03:15:13;101919.80;;;7.98;67.52
80644;BME280;70010;60.224;24.712;2023-08-12T03:17:39;101916.20;;;7.75;67.27
80644;BME280;70010;60.224;24.712;2023-08-12T03:20:06;101917.96;;;8.00;67.54
80644;BME280;70010;60.224;24.712;2023-08-12T03:22:30;101916.48;;;7.97;67.58
80644;BME280;70010;60.224;24.712;2023-08-12T03:24:56;101918.40;;;7.88;68.04
80644;BME280;70010;60.224;24.712;2023-08-12T03:27:21;101916.40;;;7.81;67.65
80644;BME280;70010;60.224;24.712;2023-08-12T03:29:46;101918.69;;;8.42;66.81
80644;BME280;70010;60.224;24.712;2023-08-12T03:32:12;101923.34;;;8.77;65.99
80644;BME280;70010;60.224;24.712;2023-08-12T03:34:37;101922.69;;;8.20;66.13
80644;BME280;70010;60.224;24.712;2023-08-12T03:37:03;101921.98;;;8.43;66.24
80644;BME280;70010;60.224;24.712;2023-08-12T03:39:28;101922.88;;;8.83;64.82
80644;BME280;70010;60.224;24.712;2023-08-12T03:41:53;101920.34;;;8.68;65.28
80644;BME280;70010;60.224;24.712;2023-08-12T03:44:18;101923.39;;;8.44;65.99
80644;BME280;70010;60.224;24.712;2023-08-12T03:46:43;101924.19;;;8.96;64.57
80644;BME280;70010;60.224;24.712;2023-08-12T03:49:09;101923.12;;;9.12;64.81
80644;BME280;70010;60.224;24.712;2023-08-12T03:51:34;101926.01;;;8.78;66.10
80644;BME280;70010;60.224;24.712;2023-08-12T03:53:59;101925.19;;;9.20;64.75
80644;BME280;70010;60.224;24.712;2023-08-12T03:56:25;101925.22;;;10.11;62.19
80644;BME280;70010;60.224;24.712;2023-08-12T03:58:50;101925.91;;;9.39;64.24
80644;BME280;70010;60.224;24.712;2023-08-12T04:01:15;101922.29;;;8.86;66.07
80644;BME280;70010;60.224;24.712;2023-08-12T04:03:41;101920.72;;;9.31;65.38
80644;BME280;70010;60.224;24.712;2023-08-12T04:06:06;101918.98;;;8.82;65.62
80644;BME280;70010;60.224;24.712;2023-08-12T04:08:31;101920.35;;;9.08;65.86
80644;BME280;70010;60.224;24.712;2023-08-12T04:10:56;101923.45;;;8.99;66.26
80644;BME280;70010;60.224;24.712;2023-08-12T04:13:22;101924.56;;;9.36;66.17
80644;BME280;70010;60.224;24.712;2023-08-12T04:15:49;101922.16;;;9.20;65.74
80644;BME280;70010;60.224;24.712;2023-08-12T04:18:12;101922.44;;;9.47;65.58
80644;BME280;70010;60.224;24.712;2023-08-12T04:20:38;101924.43;;;9.56;64.77
80644;BME280;70010;60.224;24.712;2023-08-12T04:23:03;101923.68;;;9.57;65.32
80644;BME280;70010;60.224;24.712;2023-08-12T04:25:28;101924.98;;;9.51;66.25
80644;BME280;70010;60.224;24.712;2023-08-12T04:27:53;101927.06;;;9.78;65.50
80644;BME280;70010;60.224;24.712;2023-08-12T04:30:19;101924.67;;;9.32;66.22
80644;BME280;70010;60.224;24.712;2023-08-12T04:32:44;101926.14;;;9.54;66.66
80644;BME280;70010;60.224;24.712;2023-08-12T04:35:09;101927.69;;;9.66;67.49
80644;BME280;70010;60.224;24.712;2023-08-12T04:37:35;101929.22;;;9.66;66.77
80644;BME280;70010;60.224;24.712;2023-08-12T04:40:00;101927.79;;;10.06;65.13
80644;BME280;70010;60.224;24.712;2023-08-12T04:42:25;101926.07;;;10.57;63.94
80644;BME280;70010;60.224;24.712;2023-08-12T04:44:51;101925.50;;;11.93;60.61
80644;BME280;70010;60.224;24.712;2023-08-12T04:47:16;101922.87;;;12.57;58.75
80644;BME280;70010;60.224;24.712;2023-08-12T04:49:41;101925.09;;;10.72;64.16
80644;BME280;70010;60.224;24.712;2023-08-12T04:52:06;101923.16;;;10.61;64.21
80644;BME280;70010;60.224;24.712;2023-08-12T04:54:32;101921.94;;;10.77;63.92
80644;BME280;70010;60.224;24.712;2023-08-12T04:56:57;101922.85;;;10.90;63.38
80644;BME280;70010;60.224;24.712;2023-08-12T04:59:22;101919.78;;;10.87;65.19
80644;BME280;70010;60.224;24.712;2023-08-12T05:01:47;101921.78;;;10.80;65.71
80644;BME280;70010;60.224;24.712;2023-08-12T05:04:13;101914.27;;;11.70;62.34
80644;BME280;70010;60.224;24.712;2023-08-12T05:06:38;101911.70;;;12.17;60.83
80644;BME280;70010;60.224;24.712;2023-08-12T05:09:03;101919.00;;;11.55;63.30
80644;BME280;70010;60.224;24.712;2023-08-12T05:11:28;101913.88;;;11.57;62.66
80644;BME280;70010;60.224;24.712;2023-08-12T05:13:54;101910.60;;;11.84;62.85
80644;BME280;70010;60.224;24.712;2023-08-12T05:16:19;101911.31;;;11.85;62.86
80644;BME280;70010;60.224;24.712;2023-08-12T05:18:44;101913.52;;;13.31;59.20
80644;BME280;70010;60.224;24.712;2023-08-12T05:21:10;101915.98;;;12.96;59.96
80644;BME280;70010;60.224;24.712;2023-08-12T05:23:35;101914.92;;;15.52;53.42
80644;BME280;70010;60.224;24.712;2023-08-12T05:26:00;101915.24;;;12.42;60.92
80644;BME280;70010;60.224;24.712;2023-08-12T05:28:26;101911.89;;;13.56;57.94
80644;BME280;70010;60.224;24.712;2023-08-12T05:30:51;101906.11;;;14.52;55.54
80644;BME280;70010;60.224;24.712;2023-08-12T05:33:16;101909.02;;;15.98;51.17
80644;BME280;70010;60.224;24.712;2023-08-12T05:35:42;101907.09;;;14.51;54.94
80644;BME280;70010;60.224;24.712;2023-08-12T05:38:07;101903.38;;;17.13;48.14
80644;BME280;70010;60.224;24.712;2023-08-12T05:40:32;101908.22;;;17.65;47.00
80644;BME280;70010;60.224;24.712;2023-08-12T05:42:57;101909.67;;;18.18;45.54
80644;BME280;70010;60.224;24.712;2023-08-12T05:45:23;101910.01;;;18.08;45.57
80644;BME280;70010;60.224;24.712;2023-08-12T05:47:48;101910.12;;;17.47;45.73
80644;BME280;70010;60.224;24.712;2023-08-12T05:50:14;101911.70;;;15.65;49.43
80644;BME280;70010;60.224;24.712;2023-08-12T05:52:39;101908.99;;;14.64;54.23
80644;BME280;70010;60.224;24.712;2023-08-12T05:55:05;101910.00;;;14.14;54.54
80644;BME280;70010;60.224;24.712;2023-08-12T05:57:29;101909.30;;;13.57;55.56
80644;BME280;70010;60.224;24.712;2023-08-12T05:59:55;101909.84;;;16.08;51.13
80644;BME280;70010;60.224;24.712;2023-08-12T06:02:20;101912.66;;;14.53;52.63
80644;BME280;70010;60.224;24.712;2023-08-12T06:04:45;101911.79;;;14.73;53.06
80644;BME280;70010;60.224;24.712;2023-08-12T06:07:11;101915.27;;;15.68;51.74
80644;BME280;70010;60.224;24.712;2023-08-12T06:09:36;101913.82;;;13.87;54.55
80644;BME280;70010;60.224;24.712;2023-08-12T06:12:01;101911.87;;;15.66;51.07
80644;BME280;70010;60.224;24.712;2023-08-12T06:14:27;101910.03;;;15.10;51.86
80644;BME280;70010;60.224;24.712;2023-08-12T06:16:52;101903.67;;;18.08;46.52
80644;BME280;70010;60.224;24.712;2023-08-12T06:19:17;101902.64;;;17.73;46.16
80644;BME280;70010;60.224;24.712;2023-08-12T06:21:42;101909.52;;;15.03;51.25
80644;BME280;70010;60.224;24.712;2023-08-12T06:24:07;101910.11;;;15.00;52.13
80644;BME280;70010;60.224;24.712;2023-08-12T06:26:33;101902.16;;;17.15;47.69
80644;BME280;70010;60.224;24.712;2023-08-12T06:28:58;101902.36;;;18.45;44.00
80644;BME280;70010;60.224;24.712;2023-08-12T06:31:24;101901.51;;;17.27;45.59
80644;BME280;70010;60.224;24.712;2023-08-12T06:33:49;101900.51;;;18.41;43.68
80644;BME280;70010;60.224;24.712;2023-08-12T06:36:14;101897.88;;;19.45;41.73
80644;BME280;70010;60.224;24.712;2023-08-12T06:38:39;101904.88;;;17.14;46.19
80644;BME280;70010;60.224;24.712;2023-08-12T06:41:05;101903.97;;;18.45;43.58
80644;BME280;70010;60.224;24.712;2023-08-12T06:43:30;101911.38;;;16.12;48.11
80644;BME280;70010;60.224;24.712;2023-08-12T06:45:55;101904.82;;;17.80;45.50
80644;BME280;70010;60.224;24.712;2023-08-12T06:48:20;101904.43;;;18.43;43.69
80644;BME280;70010;60.224;24.712;2023-08-12T06:50:52;101907.98;;;18.59;43.59
80644;BME280;70010;60.224;24.712;2023-08-12T06:53:11;101911.94;;;16.15;47.95
80644;BME280;70010;60.224;24.712;2023-08-12T06:55:42;101915.04;;;15.06;50.46
80644;BME280;70010;60.224;24.712;2023-08-12T06:58:02;101910.69;;;17.85;45.74
80644;BME280;70010;60.224;24.712;2023-08-12T07:00:27;101905.78;;;19.31;42.33
80644;BME280;70010;60.224;24.712;2023-08-12T07:02:52;101907.03;;;16.73;46.71
80644;BME280;70010;60.224;24.712;2023-08-12T07:05:17;101910.67;;;18.30;44.29
80644;BME280;70010;60.224;24.712;2023-08-12T07:07:43;101909.19;;;17.87;44.59
80644;BME280;70010;60.224;24.712;2023-08-12T07:10:08;101916.79;;;15.86;48.43
80644;BME280;70010;60.224;24.712;2023-08-12T07:12:33;101910.09;;;17.60;45.00
80644;BME280;70010;60.224;24.712;2023-08-12T07:14:58;101907.31;;;19.05;41.86
80644;BME280;70010;60.224;24.712;2023-08-12T07:17:23;101909.14;;;18.35;42.32
80644;BME280;70010;60.224;24.712;2023-08-12T07:19:49;101906.92;;;17.31;45.12
80644;BME280;70010;60.224;24.712;2023-08-12T07:22:14;101913.51;;;16.01;47.59
80644;BME280;70010;60.224;24.712;2023-08-12T07:24:40;101907.01;;;17.97;43.62
80644;BME280;70010;60.224;24.712;2023-08-12T07:27:05;101902.04;;;18.26;42.74
80644;BME280;70010;60.224;24.712;2023-08-12T07:29:30;101902.79;;;15.91;46.00
80644;BME280;70010;60.224;24.712;2023-08-12T07:31:56;101904.37;;;15.59;47.55
80644;BME280;70010;60.224;24.712;2023-08-12T07:34:21;101898.91;;;19.03;41.74
80644;BME280;70010;60.224;24.712;2023-08-12T07:36:46;101910.87;;;15.34;48.27
80644;BME280;70010;60.224;24.712;2023-08-12T07:39:11;101904.61;;;17.33;44.54
80644;BME280;70010;60.224;24.712;2023-08-12T07:41:37;101905.25;;;17.46;44.74
80644;BME280;70010;60.224;24.712;2023-08-12T07:44:02;101906.14;;;16.47;45.78
80644;BME280;70010;60.224;24.712;2023-08-12T07:46:28;101907.98;;;18.39;42.92
80644;BME280;70010;60.224;24.712;2023-08-12T07:48:52;101909.90;;;18.26;42.35
80644;BME280;70010;60.224;24.712;2023-08-12T07:51:17;101912.14;;;18.25;42.65
80644;BME280;70010;60.224;24.712;2023-08-12T07:53:43;101910.25;;;17.72;44.09
80644;BME280;70010;60.224;24.712;2023-08-12T07:56:08;101909.63;;;17.64;44.60
80644;BME280;70010;60.224;24.712;2023-08-12T07:58:33;101906.58;;;18.61;43.13
80644;BME280;70010;60.224;24.712;2023-08-12T08:00:58;101906.20;;;19.74;41.16
80644;BME280;70010;60.224;24.712;2023-08-12T08:03:24;101910.44;;;17.11;45.23
80644;BME280;70010;60.224;24.712;2023-08-12T08:05:49;101916.36;;;16.08;48.28
80644;BME280;70010;60.224;24.712;2023-08-12T08:08:14;101907.36;;;19.48;41.77
80644;BME280;70010;60.224;24.712;2023-08-12T08:10:39;101911.77;;;17.01;45.91
80644;BME280;70010;60.224;24.712;2023-08-12T08:13:04;101912.17;;;16.08;47.82
80644;BME280;70010;60.224;24.712;2023-08-12T08:15:30;101906.43;;;18.65;43.24
80644;BME280;70010;60.224;24.712;2023-08-12T08:17:55;101911.63;;;17.17;45.85
80644;BME280;70010;60.224;24.712;2023-08-12T08:20:20;101912.37;;;17.38;46.59
80644;BME280;70010;60.224;24.712;2023-08-12T08:22:45;101917.47;;;15.55;51.14
80644;BME280;70010;60.224;24.712;2023-08-12T08:25:10;101915.59;;;15.78;51.37
80644;BME280;70010;60.224;24.712;2023-08-12T08:27:36;101915.62;;;16.36;49.84
80644;BME280;70010;60.224;24.712;2023-08-12T08:30:01;101911.33;;;14.69;53.97
80644;BME280;70010;60.224;24.712;2023-08-12T08:32:26;101907.98;;;18.48;46.32
80644;BME280;70010;60.224;24.712;2023-08-12T08:34:51;101905.73;;;18.75;44.77
80644;BME280;70010;60.224;24.712;2023-08-12T08:37:17;101910.03;;;18.23;45.11
80644;BME280;70010;60.224;24.712;2023-08-12T08:39:42;101904.93;;;18.36;44.67
80644;BME280;70010;60.224;24.712;2023-08-12T08:42:09;101901.21;;;21.05;40.13
80644;BME280;70010;60.224;24.712;2023-08-12T08:44:33;101903.10;;;20.37;40.92
80644;BME280;70010;60.224;24.712;2023-08-12T08:46:59;101905.35;;;20.32;40.58
80644;BME280;70010;60.224;24.712;2023-08-12T08:49:23;101906.75;;;19.58;41.62
80644;BME280;70010;60.224;24.712;2023-08-12T08:51:48;101907.07;;;16.78;47.50
80644;BME280;70010;60.224;24.712;2023-08-12T08:54:14;101902.17;;;18.23;45.66
80644;BME280;70010;60.224;24.712;2023-08-12T08:56:39;101901.68;;;17.96;46.30
80644;BME280;70010;60.224;24.712;2023-08-12T08:59:04;101899.50;;;17.46;46.02
80644;BME280;70010;60.224;24.712;2023-08-12T09:01:29;101893.55;;;18.22;44.72
80644;BME280;70010;60.224;24.712;2023-08-12T09:03:54;101884.23;;;21.01;39.09
80644;BME280;70010;60.224;24.712;2023-08-12T09:06:20;101894.06;;;19.99;40.17
80644;BME280;70010;60.224;24.712;2023-08-12T09:08:45;101892.99;;;23.35;34.16
80644;BME280;70010;60.224;24.712;2023-08-12T09:11:12;101904.16;;;18.79;39.94
80644;BME280;70010;60.224;24.712;2023-08-12T09:13:35;101899.64;;;17.68;42.83
80644;BME280;70010;60.224;24.712;2023-08-12T09:16:00;101897.17;;;20.43;39.10
80644;BME280;70010;60.224;24.712;2023-08-12T09:18:26;101897.19;;;19.61;39.59
80644;BME280;70010;60.224;24.712;2023-08-12T09:20:51;101891.53;;;18.11;43.40
80644;BME280;70010;60.224;24.712;2023-08-12T09:23:16;101887.97;;;20.00;40.03
80644;BME280;70010;60.224;24.712;2023-08-12T09:25:42;101887.73;;;21.40;37.25
80644;BME280;70010;60.224;24.712;2023-08-12T09:28:09;101885.15;;;22.83;35.24
80644;BME280;70010;60.224;24.712;2023-08-12T09:30:32;101886.27;;;21.39;37.24
80644;BME280;70010;60.224;24.712;2023-08-12T09:32:59;101888.64;;;17.92;43.58
80644;BME280;70010;60.224;24.712;2023-08-12T09:35:22;101888.42;;;17.57;43.68
80644;BME280;70010;60.224;24.712;2023-08-12T09:37:47;101887.54;;;18.60;42.50
80644;BME280;70010;60.224;24.712;2023-08-12T09:40:12;101888.51;;;17.73;44.83
80644;BME280;70010;60.224;24.712;2023-08-12T09:42:44;101887.40;;;20.40;39.24
80644;BME280;70010;60.224;24.712;2023-08-12T09:45:03;101881.14;;;21.23;37.65
80644;BME280;70010;60.224;24.712;2023-08-12T09:47:28;101881.90;;;18.63;41.52
80644;BME280;70010;60.224;24.712;2023-08-12T09:49:55;101886.52;;;19.90;39.72
80644;BME280;70010;60.224;24.712;2023-08-12T09:52:19;101884.52;;;17.46;45.36
80644;BME280;70010;60.224;24.712;2023-08-12T09:54:44;101883.77;;;21.53;38.06
80644;BME280;70010;60.224;24.712;2023-08-12T09:57:11;101887.08;;;18.11;43.38
80644;BME280;70010;60.224;24.712;2023-08-12T09:59:35;101888.73;;;17.35;44.99
80644;BME280;70010;60.224;24.712;2023-08-12T10:02:01;101887.77;;;17.70;44.06
80644;BME280;70010;60.224;24.712;2023-08-12T10:04:29;101882.39;;;21.54;37.24
80644;BME280;70010;60.224;24.712;2023-08-12T10:06:51;101884.84;;;21.42;36.25
80644;BME280;70010;60.224;24.712;2023-08-12T10:09:16;101896.70;;;22.14;33.40
80644;BME280;70010;60.224;24.712;2023-08-12T10:11:42;101899.67;;;20.54;35.09
80644;BME280;70010;60.224;24.712;2023-08-12T10:14:06;101891.37;;;22.18;32.32
80644;BME280;70010;60.224;24.712;2023-08-12T10:16:33;101884.79;;;23.79;29.85
80644;BME280;70010;60.224;24.712;2023-08-12T10:18:57;101892.63;;;20.70;34.61
80644;BME280;70010;60.224;24.712;2023-08-12T10:21:22;101884.67;;;21.83;32.68
80644;BME280;70010;60.224;24.712;2023-08-12T10:23:47;101883.67;;;25.43;29.09
80644;BME280;70010;60.224;24.712;2023-08-12T10:26:13;101881.35;;;23.91;29.55
80644;BME280;70010;60.224;24.712;2023-08-12T10:28:38;101879.82;;;24.65;28.83
80644;BME280;70010;60.224;24.712;2023-08-12T10:31:03;101873.76;;;25.94;28.33
80644;BME280;70010;60.224;24.712;2023-08-12T10:33:28;101876.43;;;26.40;27.02
80644;BME280;70010;60.224;24.712;2023-08-12T10:35:55;101884.05;;;22.45;30.83
80644;BME280;70010;60.224;24.712;2023-08-12T10:38:19;101888.37;;;22.34;30.75
80644;BME280;70010;60.224;24.712;2023-08-12T10:40:44;101886.66;;;24.84;28.34
80644;BME280;70010;60.224;24.712;2023-08-12T10:43:09;101893.59;;;20.35;36.15
80644;BME280;70010;60.224;24.712;2023-08-12T10:45:43;101885.39;;;23.69;31.87
80644;BME280;70010;60.224;24.712;2023-08-12T10:48:09;101879.37;;;22.11;32.27
80644;BME280;70010;60.224;24.712;2023-08-12T10:50:26;101889.21;;;25.17;28.33
80644;BME280;70010;60.224;24.712;2023-08-12T10:52:52;101890.46;;;22.79;30.68
80644;BME280;70010;60.224;24.712;2023-08-12T10:55:18;101886.98;;;23.26;29.95
80644;BME280;70010;60.224;24.712;2023-08-12T10:57:40;101883.00;;;22.11;32.06
80644;BME280;70010;60.224;24.712;2023-08-12T11:00:06;101896.11;;;20.51;34.29
80644;BME280;70010;60.224;24.712;2023-08-12T11:02:32;101893.87;;;23.00;30.96
80644;BME280;70010;60.224;24.712;2023-08-12T11:04:56;101896.68;;;21.91;32.81
80644;BME280;70010;60.224;24.712;2023-08-12T11:07:27;101897.92;;;22.15;32.14
80644;BME280;70010;60.224;24.712;2023-08-12T11:09:51;101895.67;;;25.96;27.65
80644;BME280;70010;60.224;24.712;2023-08-12T11:12:11;101897.61;;;21.79;32.99
80644;BME280;70010;60.224;24.712;2023-08-12T11:14:47;101895.71;;;22.75;31.91
80644;BME280;70010;60.224;24.712;2023-08-12T11:17:11;101893.11;;;22.44;32.49
80644;BME280;70010;60.224;24.712;2023-08-12T11:19:27;101893.53;;;21.54;34.39
80644;BME280;70010;60.224;24.712;2023-08-12T11:21:52;101889.89;;;22.63;33.26
80644;BME280;70010;60.224;24.712;2023-08-12T11:24:17;101894.86;;;22.10;34.34
80644;BME280;70010;60.224;24.712;2023-08-12T11:26:43;101899.81;;;25.28;30.50
80644;BME280;70010;60.224;24.712;2023-08-12T11:29:09;101895.96;;;27.24;27.47
80644;BME280;70010;60.224;24.712;2023-08-12T11:31:34;101893.25;;;23.56;31.54
80644;BME280;70010;60.224;24.712;2023-08-12T11:33:58;101899.03;;;25.76;28.81
80644;BME280;70010;60.224;24.712;2023-08-12T11:36:24;101890.49;;;27.26;25.67
80644;BME280;70010;60.224;24.712;2023-08-12T11:38:49;101892.83;;;29.96;22.77
80644;BME280;70010;60.224;24.712;2023-08-12T11:41:17;101890.75;;;28.63;24.74
80644;BME280;70010;60.224;24.712;2023-08-12T11:43:39;101888.90;;;29.26;24.61
80644;BME280;70010;60.224;24.712;2023-08-12T11:46:04;101895.62;;;26.84;26.91
80644;BME280;70010;60.224;24.712;2023-08-12T11:48:30;101897.40;;;28.10;25.96
80644;BME280;70010;60.224;24.712;2023-08-12T11:50:55;101891.55;;;27.47;26.46
80644;BME280;70010;60.224;24.712;2023-08-12T11:53:20;101881.81;;;27.77;25.67
80644;BME280;70010;60.224;24.712;2023-08-12T11:55:45;101894.99;;;25.76;28.07
80644;BME280;70010;60.224;24.712;2023-08-12T11:58:13;101886.71;;;26.45;27.27
80644;BME280;70010;60.224;24.712;2023-08-12T12:00:37;101885.94;;;28.01;26.24
80644;BME280;70010;60.224;24.712;2023-08-12T12:03:02;101906.71;;;23.38;31.46
80644;BME280;70010;60.224;24.712;2023-08-12T12:05:28;101894.23;;;21.83;33.21
80644;BME280;70010;60.224;24.712;2023-08-12T12:07:52;101893.79;;;25.35;29.26
80644;BME280;70010;60.224;24.712;2023-08-12T12:10:19;101889.09;;;22.51;32.71
80644;BME280;70010;60.224;24.712;2023-08-12T12:12:44;101890.90;;;21.59;34.98
80644;BME280;70010;60.224;24.712;2023-08-12T12:15:08;101890.53;;;22.09;33.80
80644;BME280;70010;60.224;24.712;2023-08-12T12:17:39;101890.80;;;21.51;35.60
80644;BME280;70010;60.224;24.712;2023-08-12T12:20:01;101884.94;;;25.94;28.83
80644;BME280;70010;60.224;24.712;2023-08-12T12:22:28;101881.44;;;28.28;25.68
80644;BME280;70010;60.224;24.712;2023-08-12T12:24:51;101885.85;;;26.29;27.52
80644;BME280;70010;60.224;24.712;2023-08-12T12:27:16;101891.77;;;22.20;32.54
80644;BME280;70010;60.224;24.712;2023-08-12T12:29:41;101890.76;;;25.79;28.32
80644;BME280;70010;60.224;24.712;2023-08-12T12:32:06;101891.74;;;23.41;31.55